sensor_id;sensor_type;location;lat;lon;timestamp;P1;durP1;ratioP1;P2;durP2;ratioP2
7693;SDS011;3889;48.162;11.510;2023-04-29T00:00:53;1.10;;;1.00;;
7693;SDS011;3889;48.162;11.510;2023-04-29T00:03:22;1.10;;;0.90;;
7693;SDS011;3889;48.162;11.510;2023-04-29T00:05:50;1.00;;;1.00;;
7693;SDS011;3889;48.162;11.510;2023-04-29T00:08:18;1.20;;;0.80;;
7693;SDS011;3889;48.162;11.510;2023-04-29T00:10:46;1.10;;;0.90;;
7693;SDS011;3889;48.162;11.510;2023-04-29T00:13:14;0.93;;;0.80;;
7693;SDS011;3889;48.162;11.510;2023-04-29T00:15:42;1.00;;;0.90;;
7693;SDS011;3889;48.162;11.510;2023-04-29T00:18:11;1.10;;;0.90;;
7693;SDS011;3889;48.162;11.510;2023-04-29T00:20:39;1.10;;;1.00;;
7693;SDS011;3889;48.162;11.510;2023-04-29T00:23:07;1.30;;;1.00;;
7693;SDS011;3889;48.162;11.510;2023-04-29T00:25:35;1.75;;;0.95;;
7693;SDS011;3889;48.162;11.510;2023-04-29T00:28:04;0.90;;;0.90;;
7693;SDS011;3889;48.162;11.510;2023-04-29T00:30:32;1.15;;;0.90;;
7693;SDS011;3889;48.162;11.510;2023-04-29T00:33:00;1.90;;;1.10;;
7693;SDS011;3889;48.162;11.510;2023-04-29T00:35:30;1.15;;;0.90;;
7693;SDS011;3889;48.162;11.510;2023-04-29T00:37:58;1.33;;;0.95;;
7693;SDS011;3889;48.162;11.510;2023-04-29T00:40:26;2.50;;;1.10;;
7693;SDS011;3889;48.162;11.510;2023-04-29T00:42:54;1.27;;;0.98;;
7693;SDS011;3889;48.162;11.510;2023-04-29T00:45:22;1.20;;;1.10;;
7693;SDS011;3889;48.162;11.510;2023-04-29T00:47:50;1.00;;;1.00;;
7693;SDS011;3889;48.162;11.510;2023-04-29T00:50:18;0.90;;;0.90;;
7693;SDS011;3889;48.162;11.510;2023-04-29T00:52:49;1.08;;;0.98;;
7693;SDS011;3889;48.162;11.510;2023-04-29T00:55:18;1.00;;;0.90;;
7693;SDS011;3889;48.162;11.510;2023-04-29T00:57:46;1.07;;;0.90;;
7693;SDS011;3889;48.162;11.510;2023-04-29T01:00:17;1.00;;;0.90;;
7693;SDS011;3889;48.162;11.510;2023-04-29T01:02:45;1.13;;;0.90;;
7693;SDS011;3889;48.162;11.510;2023-04-29T01:05:14;2.30;;;1.00;;
7693;SDS011;3889;48.162;11.510;2023-04-29T01:07:44;2.38;;;1.08;;
7693;SDS011;3889;48.162;11.510;2023-04-29T01:10:19;1.27;;;1.08;;
7693;SDS011;3889;48.162;11.510;2023-04-29T01:12:56;1.30;;;0.98;;
7693;SDS011;3889;48.162;11.510;2023-04-29T01:15:32;1.48;;;1.05;;
7693;SDS011;3889;48.162;11.510;2023-04-29T01:18:07;1.08;;;0.98;;
7693;SDS011;3889;48.162;11.510;2023-04-29T01:20:38;0.90;;;0.90;;
7693;SDS011;3889;48.162;11.510;2023-04-29T01:23:11;1.17;;;1.08;;
7693;SDS011;3889;48.162;11.510;2023-04-29T01:25:40;1.30;;;1.20;;
7693;SDS011;3889;48.162;11.510;2023-04-29T01:28:11;1.60;;;1.00;;
7693;SDS011;3889;48.162;11.510;2023-04-29T01:30:49;1.53;;;1.10;;
7693;SDS011;3889;48.162;11.510;2023-04-29T01:33:26;1.30;;;1.10;;
7693;SDS011;3889;48.162;11.510;2023-04-29T01:36:07;1.05;;;0.93;;
7693;SDS011;3889;48.162;11.510;2023-04-29T01:38:43;1.00;;;1.00;;
7693;SDS011;3889;48.162;11.510;2023-04-29T01:41:17;1.10;;;1.10;;
7693;SDS011;3889;48.162;11.510;2023-04-29T01:43:49;1.33;;;1.23;;
7693;SDS011;3889;48.162;11.510;2023-04-29T01:46:18;1.33;;;1.13;;
7693;SDS011;3889;48.162;11.510;2023-04-29T01:48:46;1.45;;;1.10;;
7693;SDS011;3889;48.162;11.510;2023-04-29T01:51:14;1.25;;;1.15;;
7693;SDS011;3889;48.162;11.510;2023-04-29T01:53:42;1.60;;;1.30;;
7693;SDS011;3889;48.162;11.510;2023-04-29T01:56:10;1.27;;;1.10;;
7693;SDS011;3889;48.162;11.510;2023-04-29T01:58:39;1.98;;;1.30;;
7693;SDS011;3889;48.162;11.510;2023-04-29T02:01:07;2.30;;;1.20;;
7693;SDS011;3889;48.162;11.510;2023-04-29T02:03:37;1.42;;;1.33;;
7693;SDS011;3889;48.162;11.510;2023-04-29T02:06:05;1.40;;;1.30;;
7693;SDS011;3889;48.162;11.510;2023-04-29T02:08:33;1.40;;;1.30;;
7693;SDS011;3889;48.162;11.510;2023-04-29T02:11:01;2.75;;;1.50;;
7693;SDS011;3889;48.162;11.510;2023-04-29T02:13:28;1.80;;;1.20;;
7693;SDS011;3889;48.162;11.510;2023-04-29T02:15:59;1.77;;;1.45;;
7693;SDS011;3889;48.162;11.510;2023-04-29T02:18:34;1.40;;;1.30;;
7693;SDS011;3889;48.162;11.510;2023-04-29T02:21:02;2.60;;;1.55;;
7693;SDS011;3889;48.162;11.510;2023-04-29T02:23:30;1.42;;;1.33;;
7693;SDS011;3889;48.162;11.510;2023-04-29T02:25:58;2.38;;;1.40;;
7693;SDS011;3889;48.162;11.510;2023-04-29T02:28:26;2.15;;;1.50;;
7693;SDS011;3889;48.162;11.510;2023-04-29T02:30:54;2.80;;;1.35;;
7693;SDS011;3889;48.162;11.510;2023-04-29T02:33:23;1.55;;;1.45;;
7693;SDS011;3889;48.162;11.510;2023-04-29T02:35:51;1.60;;;1.50;;
7693;SDS011;3889;48.162;11.510;2023-04-29T02:38:19;3.20;;;1.50;;
7693;SDS011;3889;48.162;11.510;2023-04-29T02:40:47;1.70;;;1.60;;
7693;SDS011;3889;48.162;11.510;2023-04-29T02:43:15;2.30;;;1.80;;
7693;SDS011;3889;48.162;11.510;2023-04-29T02:45:43;1.90;;;1.60;;
7693;SDS011;3889;48.162;11.510;2023-04-29T02:48:11;1.67;;;1.58;;
7693;SDS011;3889;48.162;11.510;2023-04-29T02:50:40;2.35;;;1.67;;
7693;SDS011;3889;48.162;11.510;2023-04-29T02:53:08;1.73;;;1.58;;
7693;SDS011;3889;48.162;11.510;2023-04-29T02:55:36;1.40;;;1.30;;
7693;SDS011;3889;48.162;11.510;2023-04-29T02:58:04;1.67;;;1.58;;
7693;SDS011;3889;48.162;11.510;2023-04-29T03:00:32;1.60;;;1.50;;
7693;SDS011;3889;48.162;11.510;2023-04-29T03:02:59;2.50;;;1.60;;
7693;SDS011;3889;48.162;11.510;2023-04-29T03:05:28;1.70;;;1.60;;
7693;SDS011;3889;48.162;11.510;2023-04-29T03:07:57;1.70;;;1.60;;
7693;SDS011;3889;48.162;11.510;2023-04-29T03:10:24;1.70;;;1.60;;
7693;SDS011;3889;48.162;11.510;2023-04-29T03:12:52;1.87;;;1.67;;
7693;SDS011;3889;48.162;11.510;2023-04-29T03:15:20;1.80;;;1.70;;
7693;SDS011;3889;48.162;11.510;2023-04-29T03:17:48;1.70;;;1.52;;
7693;SDS011;3889;48.162;11.510;2023-04-29T03:20:16;1.60;;;1.50;;
7693;SDS011;3889;48.162;11.510;2023-04-29T03:22:44;1.70;;;1.60;;
7693;SDS011;3889;48.162;11.510;2023-04-29T03:25:13;2.63;;;1.77;;
7693;SDS011;3889;48.162;11.510;2023-04-29T03:27:41;2.10;;;1.80;;
7693;SDS011;3889;48.162;11.510;2023-04-29T03:30:10;1.65;;;1.55;;
7693;SDS011;3889;48.162;11.510;2023-04-29T03:32:38;1.73;;;1.63;;
7693;SDS011;3889;48.162;11.510;2023-04-29T03:35:06;2.03;;;1.85;;
7693;SDS011;3889;48.162;11.510;2023-04-29T03:37:34;1.60;;;1.50;;
7693;SDS011;3889;48.162;11.510;2023-04-29T03:40:02;1.95;;;1.50;;
7693;SDS011;3889;48.162;11.510;2023-04-29T03:42:32;1.60;;;1.50;;
7693;SDS011;3889;48.162;11.510;2023-04-29T03:44:59;1.70;;;1.50;;
7693;SDS011;3889;48.162;11.510;2023-04-29T03:47:27;1.83;;;1.63;;
7693;SDS011;3889;48.162;11.510;2023-04-29T03:49:55;1.83;;;1.73;;
7693;SDS011;3889;48.162;11.510;2023-04-29T03:52:23;1.77;;;1.67;;
7693;SDS011;3889;48.162;11.510;2023-04-29T03:54:51;1.90;;;1.80;;
7693;SDS011;3889;48.162;11.510;2023-04-29T03:57:19;1.77;;;1.67;;
7693;SDS011;3889;48.162;11.510;2023-04-29T03:59:48;1.85;;;1.50;;
7693;SDS011;3889;48.162;11.510;2023-04-29T04:02:16;1.70;;;1.60;;
7693;SDS011;3889;48.162;11.510;2023-04-29T04:04:44;1.63;;;1.52;;
7693;SDS011;3889;48.162;11.510;2023-04-29T04:07:12;1.70;;;1.60;;
7693;SDS011;3889;48.162;11.510;2023-04-29T04:09:40;2.83;;;1.70;;
7693;SDS011;3889;48.162;11.510;2023-04-29T04:12:08;1.60;;;1.50;;
7693;SDS011;3889;48.162;11.510;2023-04-29T04:14:36;1.80;;;1.70;;
7693;SDS011;3889;48.162;11.510;2023-04-29T04:17:05;1.70;;;1.60;;
7693;SDS011;3889;48.162;11.510;2023-04-29T04:19:33;1.83;;;1.73;;
7693;SDS011;3889;48.162;11.510;2023-04-29T04:22:01;1.67;;;1.50;;
7693;SDS011;3889;48.162;11.510;2023-04-29T04:24:29;9.13;;;2.17;;
7693;SDS011;3889;48.162;11.510;2023-04-29T04:26:57;1.45;;;1.35;;
7693;SDS011;3889;48.162;11.510;2023-04-29T04:29:26;1.67;;;1.58;;
7693;SDS011;3889;48.162;11.510;2023-04-29T04:31:53;1.53;;;1.43;;
7693;SDS011;3889;48.162;11.510;2023-04-29T04:34:23;1.58;;;1.48;;
7693;SDS011;3889;48.162;11.510;2023-04-29T04:36:51;2.15;;;1.80;;
7693;SDS011;3889;48.162;11.510;2023-04-29T04:39:19;2.30;;;2.10;;
7693;SDS011;3889;48.162;11.510;2023-04-29T04:41:47;2.33;;;2.00;;
7693;SDS011;3889;48.162;11.510;2023-04-29T04:44:15;2.05;;;1.80;;
7693;SDS011;3889;48.162;11.510;2023-04-29T04:46:43;2.20;;;2.00;;
7693;SDS011;3889;48.162;11.510;2023-04-29T04:49:10;2.10;;;2.00;;
7693;SDS011;3889;48.162;11.510;2023-04-29T04:51:40;1.85;;;1.75;;
7693;SDS011;3889;48.162;11.510;2023-04-29T04:54:10;1.95;;;1.85;;
7693;SDS011;3889;48.162;11.510;2023-04-29T04:56:38;2.67;;;1.97;;
7693;SDS011;3889;48.162;11.510;2023-04-29T04:59:06;2.57;;;2.37;;
7693;SDS011;3889;48.162;11.510;2023-04-29T05:01:34;2.20;;;2.00;;
7693;SDS011;3889;48.162;11.510;2023-04-29T05:04:02;2.20;;;2.10;;
7693;SDS011;3889;48.162;11.510;2023-04-29T05:06:30;2.58;;;2.35;;
7693;SDS011;3889;48.162;11.510;2023-04-29T05:08:59;2.30;;;2.10;;
7693;SDS011;3889;48.162;11.510;2023-04-29T05:11:28;2.40;;;2.20;;
7693;SDS011;3889;48.162;11.510;2023-04-29T05:13:56;2.30;;;2.20;;
7693;SDS011;3889;48.162;11.510;2023-04-29T05:16:23;2.45;;;2.25;;
7693;SDS011;3889;48.162;11.510;2023-04-29T05:18:51;2.50;;;2.30;;
7693;SDS011;3889;48.162;11.510;2023-04-29T05:21:19;2.90;;;2.42;;
7693;SDS011;3889;48.162;11.510;2023-04-29T05:23:47;2.88;;;2.30;;
7693;SDS011;3889;48.162;11.510;2023-04-29T05:26:16;2.50;;;2.30;;
7693;SDS011;3889;48.162;11.510;2023-04-29T05:28:44;2.65;;;2.45;;
7693;SDS011;3889;48.162;11.510;2023-04-29T05:31:12;2.63;;;2.30;;
7693;SDS011;3889;48.162;11.510;2023-04-29T05:33:40;2.60;;;2.40;;
7693;SDS011;3889;48.162;11.510;2023-04-29T05:36:08;2.35;;;2.25;;
7693;SDS011;3889;48.162;11.510;2023-04-29T05:38:36;2.97;;;2.30;;
7693;SDS011;3889;48.162;11.510;2023-04-29T05:41:04;2.35;;;2.15;;
7693;SDS011;3889;48.162;11.510;2023-04-29T05:43:33;2.40;;;2.20;;
7693;SDS011;3889;48.162;11.510;2023-04-29T05:46:02;2.60;;;2.40;;
7693;SDS011;3889;48.162;11.510;2023-04-29T05:48:30;3.03;;;2.75;;
7693;SDS011;3889;48.162;11.510;2023-04-29T05:50:57;3.30;;;2.65;;
7693;SDS011;3889;48.162;11.510;2023-04-29T05:53:25;3.00;;;2.67;;
7693;SDS011;3889;48.162;11.510;2023-04-29T05:55:53;3.20;;;2.53;;
7693;SDS011;3889;48.162;11.510;2023-04-29T05:58:21;3.10;;;2.72;;
7693;SDS011;3889;48.162;11.510;2023-04-29T06:00:50;3.40;;;3.10;;
7693;SDS011;3889;48.162;11.510;2023-04-29T06:03:18;3.42;;;3.13;;
7693;SDS011;3889;48.162;11.510;2023-04-29T06:05:46;3.40;;;3.10;;
7693;SDS011;3889;48.162;11.510;2023-04-29T06:08:15;3.85;;;3.55;;
7693;SDS011;3889;48.162;11.510;2023-04-29T06:10:43;4.30;;;3.90;;
7693;SDS011;3889;48.162;11.510;2023-04-29T06:13:12;4.00;;;3.70;;
7693;SDS011;3889;48.162;11.510;2023-04-29T06:15:40;3.60;;;3.30;;
7693;SDS011;3889;48.162;11.510;2023-04-29T06:18:09;4.03;;;3.72;;
7693;SDS011;3889;48.162;11.510;2023-04-29T06:20:37;4.05;;;3.70;;
7693;SDS011;3889;48.162;11.510;2023-04-29T06:23:04;3.80;;;3.50;;
7693;SDS011;3889;48.162;11.510;2023-04-29T06:25:32;4.30;;;3.90;;
7693;SDS011;3889;48.162;11.510;2023-04-29T06:28:00;4.40;;;4.05;;
7693;SDS011;3889;48.162;11.510;2023-04-29T06:30:29;5.03;;;4.53;;
7693;SDS011;3889;48.162;11.510;2023-04-29T06:32:57;5.18;;;4.72;;
7693;SDS011;3889;48.162;11.510;2023-04-29T06:35:26;5.25;;;4.85;;
7693;SDS011;3889;48.162;11.510;2023-04-29T06:37:54;5.50;;;5.00;;
7693;SDS011;3889;48.162;11.510;2023-04-29T06:40:22;7.35;;;6.65;;
7693;SDS011;3889;48.162;11.510;2023-04-29T06:42:50;7.27;;;6.33;;
7693;SDS011;3889;48.162;11.510;2023-04-29T06:45:18;6.80;;;6.20;;
7693;SDS011;3889;48.162;11.510;2023-04-29T06:47:46;6.83;;;6.10;;
7693;SDS011;3889;48.162;11.510;2023-04-29T06:50:14;6.40;;;5.90;;
7693;SDS011;3889;48.162;11.510;2023-04-29T06:52:43;6.17;;;5.60;;
7693;SDS011;3889;48.162;11.510;2023-04-29T06:55:11;6.65;;;5.55;;
7693;SDS011;3889;48.162;11.510;2023-04-29T06:57:38;6.15;;;5.55;;
7693;SDS011;3889;48.162;11.510;2023-04-29T07:00:07;6.20;;;5.43;;
7693;SDS011;3889;48.162;11.510;2023-04-29T07:02:35;5.35;;;4.63;;
7693;SDS011;3889;48.162;11.510;2023-04-29T07:05:04;5.20;;;4.80;;
7693;SDS011;3889;48.162;11.510;2023-04-29T07:07:33;5.00;;;4.50;;
7693;SDS011;3889;48.162;11.510;2023-04-29T07:10:02;4.43;;;4.03;;
7693;SDS011;3889;48.162;11.510;2023-04-29T07:12:31;6.05;;;4.50;;
7693;SDS011;3889;48.162;11.510;2023-04-29T07:14:58;4.90;;;4.30;;
7693;SDS011;3889;48.162;11.510;2023-04-29T07:17:28;5.15;;;4.75;;
7693;SDS011;3889;48.162;11.510;2023-04-29T07:19:56;4.45;;;4.15;;
7693;SDS011;3889;48.162;11.510;2023-04-29T07:22:24;4.78;;;4.28;;
7693;SDS011;3889;48.162;11.510;2023-04-29T07:24:52;5.65;;;4.30;;
7693;SDS011;3889;48.162;11.510;2023-04-29T07:27:22;4.75;;;4.35;;
7693;SDS011;3889;48.162;11.510;2023-04-29T07:29:50;4.70;;;4.30;;
7693;SDS011;3889;48.162;11.510;2023-04-29T07:32:18;4.47;;;4.07;;
7693;SDS011;3889;48.162;11.510;2023-04-29T07:34:46;4.70;;;4.20;;
7693;SDS011;3889;48.162;11.510;2023-04-29T07:37:14;4.10;;;3.80;;
7693;SDS011;3889;48.162;11.510;2023-04-29T07:39:41;4.80;;;4.40;;
7693;SDS011;3889;48.162;11.510;2023-04-29T07:42:09;4.95;;;4.00;;
7693;SDS011;3889;48.162;11.510;2023-04-29T07:44:39;3.80;;;3.50;;
7693;SDS011;3889;48.162;11.510;2023-04-29T07:47:06;3.80;;;3.50;;
7693;SDS011;3889;48.162;11.510;2023-04-29T07:49:34;4.57;;;3.95;;
7693;SDS011;3889;48.162;11.510;2023-04-29T07:52:03;4.07;;;3.78;;
7693;SDS011;3889;48.162;11.510;2023-04-29T07:54:31;4.07;;;3.77;;
7693;SDS011;3889;48.162;11.510;2023-04-29T07:56:59;4.03;;;3.53;;
7693;SDS011;3889;48.162;11.510;2023-04-29T07:59:28;3.80;;;3.42;;
7693;SDS011;3889;48.162;11.510;2023-04-29T08:01:58;3.70;;;3.40;;
7693;SDS011;3889;48.162;11.510;2023-04-29T08:04:25;3.75;;;3.40;;
7693;SDS011;3889;48.162;11.510;2023-04-29T08:06:54;3.85;;;3.42;;
7693;SDS011;3889;48.162;11.510;2023-04-29T08:09:22;3.35;;;3.05;;
7693;SDS011;3889;48.162;11.510;2023-04-29T08:11:49;3.58;;;3.28;;
7693;SDS011;3889;48.162;11.510;2023-04-29T08:14:17;3.50;;;3.28;;
7693;SDS011;3889;48.162;11.510;2023-04-29T08:16:45;3.90;;;3.10;;
7693;SDS011;3889;48.162;11.510;2023-04-29T08:19:14;3.40;;;3.10;;
7693;SDS011;3889;48.162;11.510;2023-04-29T08:21:42;3.17;;;2.88;;
7693;SDS011;3889;48.162;11.510;2023-04-29T08:24:10;3.03;;;2.67;;
7693;SDS011;3889;48.162;11.510;2023-04-29T08:26:38;3.47;;;2.75;;
7693;SDS011;3889;48.162;11.510;2023-04-29T08:29:06;3.67;;;2.40;;
7693;SDS011;3889;48.162;11.510;2023-04-29T08:31:34;2.70;;;2.50;;
7693;SDS011;3889;48.162;11.510;2023-04-29T08:34:02;2.40;;;2.20;;
7693;SDS011;3889;48.162;11.510;2023-04-29T08:36:31;2.55;;;2.35;;
7693;SDS011;3889;48.162;11.510;2023-04-29T08:39:02;2.70;;;2.20;;
7693;SDS011;3889;48.162;11.510;2023-04-29T08:41:30;2.13;;;2.03;;
7693;SDS011;3889;48.162;11.510;2023-04-29T08:43:58;2.97;;;2.28;;
7693;SDS011;3889;48.162;11.510;2023-04-29T08:46:26;2.15;;;1.95;;
7693;SDS011;3889;48.162;11.510;2023-04-29T08:48:55;2.80;;;2.60;;
7693;SDS011;3889;48.162;11.510;2023-04-29T08:51:24;3.95;;;3.15;;
7693;SDS011;3889;48.162;11.510;2023-04-29T08:53:53;5.03;;;3.38;;
7693;SDS011;3889;48.162;11.510;2023-04-29T08:56:22;2.13;;;1.93;;
7693;SDS011;3889;48.162;11.510;2023-04-29T08:58:53;2.50;;;2.30;;
7693;SDS011;3889;48.162;11.510;2023-04-29T09:01:24;2.63;;;2.20;;
7693;SDS011;3889;48.162;11.510;2023-04-29T09:03:55;2.60;;;1.90;;
7693;SDS011;3889;48.162;11.510;2023-04-29T09:06:36;2.55;;;2.10;;
7693;SDS011;3889;48.162;11.510;2023-04-29T09:09:05;2.97;;;2.50;;
7693;SDS011;3889;48.162;11.510;2023-04-29T09:11:34;2.70;;;1.90;;
7693;SDS011;3889;48.162;11.510;2023-04-29T09:14:03;2.60;;;1.70;;
7693;SDS011;3889;48.162;11.510;2023-04-29T09:16:31;1.95;;;1.60;;
7693;SDS011;3889;48.162;11.510;2023-04-29T09:19:00;1.73;;;1.63;;
7693;SDS011;3889;48.162;11.510;2023-04-29T09:21:28;2.80;;;2.08;;
7693;SDS011;3889;48.162;11.510;2023-04-29T09:23:58;1.90;;;1.80;;
7693;SDS011;3889;48.162;11.510;2023-04-29T09:26:32;2.08;;;1.88;;
7693;SDS011;3889;48.162;11.510;2023-04-29T09:29:07;1.80;;;1.70;;
7693;SDS011;3889;48.162;11.510;2023-04-29T09:31:36;2.28;;;1.80;;
7693;SDS011;3889;48.162;11.510;2023-04-29T09:34:05;2.30;;;2.10;;
7693;SDS011;3889;48.162;11.510;2023-04-29T09:36:37;3.45;;;2.20;;
7693;SDS011;3889;48.162;11.510;2023-04-29T09:39:06;2.10;;;1.90;;
7693;SDS011;3889;48.162;11.510;2023-04-29T09:41:57;1.55;;;1.45;;
7693;SDS011;3889;48.162;11.510;2023-04-29T09:44:29;1.52;;;1.40;;
7693;SDS011;3889;48.162;11.510;2023-04-29T09:47:00;1.90;;;1.65;;
7693;SDS011;3889;48.162;11.510;2023-04-29T09:49:30;2.10;;;1.90;;
7693;SDS011;3889;48.162;11.510;2023-04-29T09:52:01;1.85;;;1.58;;
7693;SDS011;3889;48.162;11.510;2023-04-29T09:54:30;1.48;;;1.33;;
7693;SDS011;3889;48.162;11.510;2023-04-29T09:57:00;1.40;;;1.30;;
7693;SDS011;3889;48.162;11.510;2023-04-29T09:59:31;1.67;;;1.52;;
7693;SDS011;3889;48.162;11.510;2023-04-29T10:02:01;3.17;;;2.00;;
7693;SDS011;3889;48.162;11.510;2023-04-29T10:04:37;1.70;;;1.38;;
7693;SDS011;3889;48.162;11.510;2023-04-29T10:07:08;2.47;;;1.98;;
7693;SDS011;3889;48.162;11.510;2023-04-29T10:09:39;2.67;;;2.40;;
7693;SDS011;3889;48.162;11.510;2023-04-29T10:12:09;2.87;;;2.67;;
7693;SDS011;3889;48.162;11.510;2023-04-29T10:14:38;2.80;;;2.47;;
7693;SDS011;3889;48.162;11.510;2023-04-29T10:17:10;2.95;;;2.58;;
7693;SDS011;3889;48.162;11.510;2023-04-29T10:19:46;2.92;;;2.63;;
7693;SDS011;3889;48.162;11.510;2023-04-29T10:22:25;3.05;;;2.80;;
7693;SDS011;3889;48.162;11.510;2023-04-29T10:24:56;3.95;;;2.70;;
7693;SDS011;3889;48.162;11.510;2023-04-29T10:27:28;2.73;;;2.53;;
7693;SDS011;3889;48.162;11.510;2023-04-29T10:29:59;2.78;;;2.58;;
7693;SDS011;3889;48.162;11.510;2023-04-29T10:32:30;3.53;;;2.47;;
7693;SDS011;3889;48.162;11.510;2023-04-29T10:35:16;2.35;;;2.15;;
7693;SDS011;3889;48.162;11.510;2023-04-29T10:37:47;2.13;;;2.00;;
7693;SDS011;3889;48.162;11.510;2023-04-29T10:40:16;2.17;;;1.98;;
7693;SDS011;3889;48.162;11.510;2023-04-29T10:42:49;3.20;;;2.50;;
7693;SDS011;3889;48.162;11.510;2023-04-29T10:45:19;2.42;;;2.22;;
7693;SDS011;3889;48.162;11.510;2023-04-29T10:53:34;2.83;;;2.47;;
7693;SDS011;3889;48.162;11.510;2023-04-29T10:56:04;2.47;;;2.30;;
7693;SDS011;3889;48.162;11.510;2023-04-29T10:58:36;2.70;;;2.33;;
7693;SDS011;3889;48.162;11.510;2023-04-29T11:01:09;2.10;;;2.00;;
7693;SDS011;3889;48.162;11.510;2023-04-29T11:03:49;2.10;;;1.90;;
7693;SDS011;3889;48.162;11.510;2023-04-29T11:06:24;3.20;;;2.22;;
7693;SDS011;3889;48.162;11.510;2023-04-29T11:09:06;2.25;;;1.92;;
7693;SDS011;3889;48.162;11.510;2023-04-29T11:11:42;3.47;;;2.35;;
7693;SDS011;3889;48.162;11.510;2023-04-29T11:14:14;2.20;;;2.00;;
7693;SDS011;3889;48.162;11.510;2023-04-29T11:16:46;2.08;;;1.90;;
7693;SDS011;3889;48.162;11.510;2023-04-29T11:19:15;2.90;;;1.88;;
7693;SDS011;3889;48.162;11.510;2023-04-29T11:21:44;2.15;;;1.83;;
7693;SDS011;3889;48.162;11.510;2023-04-29T11:24:13;2.00;;;1.58;;
7693;SDS011;3889;48.162;11.510;2023-04-29T11:26:44;1.50;;;1.40;;
7693;SDS011;3889;48.162;11.510;2023-04-29T11:29:13;1.58;;;1.45;;
7693;SDS011;3889;48.162;11.510;2023-04-29T11:31:41;1.60;;;1.50;;
7693;SDS011;3889;48.162;11.510;2023-04-29T11:34:09;2.15;;;1.50;;
7693;SDS011;3889;48.162;11.510;2023-04-29T11:36:37;2.20;;;1.75;;
7693;SDS011;3889;48.162;11.510;2023-04-29T11:39:05;2.83;;;1.77;;
7693;SDS011;3889;48.162;11.510;2023-04-29T11:41:34;1.77;;;1.67;;
7693;SDS011;3889;48.162;11.510;2023-04-29T11:44:02;1.63;;;1.52;;
7693;SDS011;3889;48.162;11.510;2023-04-29T11:46:33;1.50;;;1.40;;
7693;SDS011;3889;48.162;11.510;2023-04-29T11:49:01;2.08;;;1.50;;
7693;SDS011;3889;48.162;11.510;2023-04-29T11:51:29;1.90;;;1.52;;
7693;SDS011;3889;48.162;11.510;2023-04-29T11:53:57;1.90;;;1.33;;
7693;SDS011;3889;48.162;11.510;2023-04-29T11:56:25;1.50;;;1.40;;
7693;SDS011;3889;48.162;11.510;2023-04-29T11:58:53;2.38;;;1.63;;
7693;SDS011;3889;48.162;11.510;2023-04-29T12:01:22;1.45;;;1.35;;
7693;SDS011;3889;48.162;11.510;2023-04-29T12:03:57;1.75;;;1.50;;
7693;SDS011;3889;48.162;11.510;2023-04-29T12:06:26;1.80;;;1.52;;
7693;SDS011;3889;48.162;11.510;2023-04-29T12:08:57;1.48;;;1.38;;
7693;SDS011;3889;48.162;11.510;2023-04-29T12:11:25;1.80;;;1.10;;
7693;SDS011;3889;48.162;11.510;2023-04-29T12:13:54;1.48;;;1.33;;
7693;SDS011;3889;48.162;11.510;2023-04-29T12:16:22;3.60;;;1.53;;
7693;SDS011;3889;48.162;11.510;2023-04-29T12:18:51;1.50;;;1.40;;
7693;SDS011;3889;48.162;11.510;2023-04-29T12:21:21;1.95;;;1.27;;
7693;SDS011;3889;48.162;11.510;2023-04-29T12:23:49;2.30;;;1.58;;
7693;SDS011;3889;48.162;11.510;2023-04-29T12:26:18;2.15;;;1.40;;
7693;SDS011;3889;48.162;11.510;2023-04-29T12:28:47;3.15;;;1.75;;
7693;SDS011;3889;48.162;11.510;2023-04-29T12:31:15;1.85;;;1.30;;
7693;SDS011;3889;48.162;11.510;2023-04-29T12:33:43;1.80;;;1.20;;
7693;SDS011;3889;48.162;11.510;2023-04-29T12:36:14;2.03;;;1.30;;
7693;SDS011;3889;48.162;11.510;2023-04-29T12:38:46;2.70;;;1.70;;
7693;SDS011;3889;48.162;11.510;2023-04-29T12:41:14;1.70;;;1.40;;
7693;SDS011;3889;48.162;11.510;2023-04-29T12:43:42;1.58;;;1.27;;
7693;SDS011;3889;48.162;11.510;2023-04-29T12:46:11;1.50;;;1.40;;
7693;SDS011;3889;48.162;11.510;2023-04-29T12:48:41;2.60;;;1.40;;
7693;SDS011;3889;48.162;11.510;2023-04-29T12:51:09;1.90;;;1.23;;
7693;SDS011;3889;48.162;11.510;2023-04-29T12:53:37;1.40;;;1.30;;
7693;SDS011;3889;48.162;11.510;2023-04-29T12:56:07;1.30;;;1.20;;
7693;SDS011;3889;48.162;11.510;2023-04-29T12:58:38;1.40;;;1.30;;
7693;SDS011;3889;48.162;11.510;2023-04-29T13:01:06;1.63;;;1.38;;
7693;SDS011;3889;48.162;11.510;2023-04-29T13:03:36;1.48;;;1.20;;
7693;SDS011;3889;48.162;11.510;2023-04-29T13:06:05;1.20;;;1.10;;
7693;SDS011;3889;48.162;11.510;2023-04-29T13:08:33;1.42;;;1.33;;
7693;SDS011;3889;48.162;11.510;2023-04-29T13:11:01;1.48;;;1.00;;
7693;SDS011;3889;48.162;11.510;2023-04-29T13:13:30;1.77;;;1.08;;
7693;SDS011;3889;48.162;11.510;2023-04-29T13:15:58;1.73;;;1.35;;
7693;SDS011;3889;48.162;11.510;2023-04-29T13:18:26;1.30;;;1.00;;
7693;SDS011;3889;48.162;11.510;2023-04-29T13:20:56;1.60;;;1.00;;
7693;SDS011;3889;48.162;11.510;2023-04-29T13:23:27;1.08;;;1.02;;
7693;SDS011;3889;48.162;11.510;2023-04-29T13:25:55;1.70;;;1.30;;
7693;SDS011;3889;48.162;11.510;2023-04-29T13:28:23;0.95;;;0.95;;
7693;SDS011;3889;48.162;11.510;2023-04-29T13:30:52;1.20;;;1.00;;
7693;SDS011;3889;48.162;11.510;2023-04-29T13:33:20;0.90;;;0.90;;
7693;SDS011;3889;48.162;11.510;2023-04-29T13:35:48;0.93;;;0.90;;
7693;SDS011;3889;48.162;11.510;2023-04-29T13:38:15;1.20;;;1.10;;
7693;SDS011;3889;48.162;11.510;2023-04-29T13:40:43;1.40;;;1.20;;
7693;SDS011;3889;48.162;11.510;2023-04-29T13:43:15;1.37;;;0.97;;
7693;SDS011;3889;48.162;11.510;2023-04-29T13:46:02;1.10;;;1.00;;
7693;SDS011;3889;48.162;11.510;2023-04-29T13:48:33;1.10;;;1.00;;
7693;SDS011;3889;48.162;11.510;2023-04-29T13:51:21;2.10;;;1.00;;
7693;SDS011;3889;48.162;11.510;2023-04-29T13:54:08;1.70;;;1.00;;
7693;SDS011;3889;48.162;11.510;2023-04-29T13:56:56;1.08;;;1.00;;
7693;SDS011;3889;48.162;11.510;2023-04-29T13:59:27;1.45;;;0.90;;
7693;SDS011;3889;48.162;11.510;2023-04-29T14:02:15;1.37;;;1.00;;
7693;SDS011;3889;48.162;11.510;2023-04-29T14:04:45;1.10;;;1.00;;
7693;SDS011;3889;48.162;11.510;2023-04-29T14:07:14;1.38;;;1.27;;
7693;SDS011;3889;48.162;11.510;2023-04-29T14:09:42;1.27;;;1.17;;
7693;SDS011;3889;48.162;11.510;2023-04-29T14:12:09;2.28;;;1.17;;
7693;SDS011;3889;48.162;11.510;2023-04-29T14:14:37;1.45;;;1.35;;
7693;SDS011;3889;48.162;11.510;2023-04-29T14:17:05;1.63;;;1.10;;
7693;SDS011;3889;48.162;11.510;2023-04-29T14:19:34;1.30;;;1.20;;
7693;SDS011;3889;48.162;11.510;2023-04-29T14:22:02;1.33;;;1.10;;
7693;SDS011;3889;48.162;11.510;2023-04-29T14:24:30;1.38;;;1.27;;
7693;SDS011;3889;48.162;11.510;2023-04-29T14:26:58;1.70;;;1.30;;
7693;SDS011;3889;48.162;11.510;2023-04-29T14:29:27;1.70;;;1.30;;
7693;SDS011;3889;48.162;11.510;2023-04-29T14:31:55;1.92;;;1.00;;
7693;SDS011;3889;48.162;11.510;2023-04-29T14:34:23;1.60;;;1.10;;
7693;SDS011;3889;48.162;11.510;2023-04-29T14:36:52;1.38;;;1.10;;
7693;SDS011;3889;48.162;11.510;2023-04-29T14:39:20;2.75;;;1.20;;
7693;SDS011;3889;48.162;11.510;2023-04-29T14:41:48;1.23;;;1.10;;
7693;SDS011;3889;48.162;11.510;2023-04-29T14:44:16;1.20;;;1.10;;
7693;SDS011;3889;48.162;11.510;2023-04-29T14:46:44;1.23;;;1.00;;
7693;SDS011;3889;48.162;11.510;2023-04-29T14:49:12;1.50;;;1.30;;
7693;SDS011;3889;48.162;11.510;2023-04-29T14:51:39;1.17;;;1.10;;
7693;SDS011;3889;48.162;11.510;2023-04-29T14:54:09;1.30;;;1.20;;
7693;SDS011;3889;48.162;11.510;2023-04-29T14:56:37;2.47;;;1.15;;
7693;SDS011;3889;48.162;11.510;2023-04-29T14:59:05;1.70;;;1.40;;
7693;SDS011;3889;48.162;11.510;2023-04-29T15:01:34;1.45;;;1.35;;
7693;SDS011;3889;48.162;11.510;2023-04-29T15:04:02;1.40;;;1.30;;
7693;SDS011;3889;48.162;11.510;2023-04-29T15:06:30;1.52;;;1.30;;
7693;SDS011;3889;48.162;11.510;2023-04-29T15:08:59;1.45;;;1.35;;
7693;SDS011;3889;48.162;11.510;2023-04-29T15:11:28;2.55;;;1.25;;
7693;SDS011;3889;48.162;11.510;2023-04-29T15:13:56;1.70;;;1.30;;
7693;SDS011;3889;48.162;11.510;2023-04-29T15:16:24;1.33;;;1.23;;
7693;SDS011;3889;48.162;11.510;2023-04-29T15:18:53;2.20;;;1.50;;